James Valley, South Dakota
Current Conditions -  °F | °C
As of 3:08 AM on Saturday 20 Dec 2014 (Local Time) from KHON Reporting Station
Haze Haze  
Wind Chill: 18°   Ceiling: 200
Heat Index: 26°   Visibility: 1.5mi
Dew Point: 26°   Wind: 7mph
Humidity: 100%   Direction: 170°S
Pressure: 30.04"   Gusts: NA
Location:  44.3587°N, 98.2248°W
Report Text: KHON 200908Z AUTO 17006KT 1 1/2SM BR OVC002 M03/M03 A3004 RMK AO2 T10331033
Loading
Personal Weather Stations






























Interactive Weather Map New forecast layout! Learn more

10-Day Weather Forecast

Advertisements
Track Severe Weather on mobile